AirNav   Free Bose SoundSport
 
 379 users online  

KCQW Cheraw Municipal Airport/Lynch Bellinger Field
Cheraw, South Carolina, USA

GOING TO CHERAW?


FAA INFORMATION EFFECTIVE 28 MARCH 2019

Location

FAA Identifier: CQW
Lat/Long: 34-42-46.3000N / 079-57-25.2000W
34-42.771667N / 079-57.420000W
34.7128611 / -79.9570000
(estimated)
Elevation: 238.7 ft. / 72.8 m (surveyed)
Variation: 08W (2005)
From city: 3 miles NW of CHERAW, SC
Time zone: UTC -4 (UTC -5 during Standard Time)
Zip code: 29520

Airport Operations

Airport use: Open to the public
Activation date: 02/1945
Control tower: no
ARTCC: JACKSONVILLE CENTER
FSS: ANDERSON FLIGHT SERVICE STATION
NOTAMs facility: AND (NOTAM-D service available)
Attendance: MON-SAT 0800-1800, ALL SUN 1300-1700
Wind indicator: lighted
Segmented circle: yes
Lights: ACTVT MIRL 08/26, REILS RYS 08, 26 AND WND CONE LGT - CTAF.
Beacon: white-green (lighted land airport)
Operates sunset to sunrise.

Airport Communications

CTAF/UNICOM: 122.8
WX AWOS-3: 124.825 (843-537-3301)
FLORENCE APPROACH: 118.6
FLORENCE DEPARTURE: 118.6
WX AWOS-3PT at BBP (12 nm SE): 123.825 (843-479-5817)
WX AWOS-3 at RCZ (14 nm NE): 118.775 (910-997-4093)
WX AWOS-3PT at UDG (16 nm S): 119.925 (843-393-8220)
WX AWOS-3 at AFP (19 nm N): 119.325 (704-695-0623)
  • APCH/DEP SERVICE PROVIDED BY JACKSONVILLE ARTCC ON FREQS 133.45/306.3 (FLORENCE RCAG) WHEN FLORENCE APCH CTL CLSD.

Nearby radio navigation aids

VOR radial/distance  VOR name  Freq  Var
CTFr080/16.1CHESTERFIELD VOR/DME108.2003W
FLOr336/32.4FLORENCE VORTAC115.2003W
SDZr214/35.2SANDHILLS VORTAC111.8003W

 
NDB name  Hdg/Dist  Freq  Var  ID
BENNETTSVILLE305/12.423008WBES -... . ...
DARLINGTON354/16.524506WUDG ..- -.. --.
HARTSVILLE031/20.134107WHVS .... ...- ...
MACKALL237/29.927806WHFF .... ..-. ..-.
DILLON307/33.127409WDLC -.. .-.. -.-.

Airport Services

Fuel available: 100LL JET-A
Parking: tiedowns
Airframe service: MAJOR
Powerplant service: MAJOR
Bottled oxygen: NONE
Bulk oxygen: NONE

Runway Information

Runway 8/26

Dimensions: 5000 x 75 ft. / 1524 x 23 m
Surface: asphalt/porous friction courses, in fair condition
Weight bearing capacity: 
Single wheel: 30.0
Double wheel: 48.0
Runway edge lights: medium intensity
RUNWAY 8  RUNWAY 26
Latitude: 34-42.632012N34-42.912787N
Longitude: 079-57.889422W079-56.950967W
Elevation: 238.7 ft.187.9 ft.
Gradient: 1.0%1.0%
Traffic pattern: leftleft
Runway heading: 078 magnetic, 070 true258 magnetic, 250 true
Markings: nonprecision, in fair conditionnonprecision, in fair condition
Runway end identifier lights: yes
REIL OUT OF SERVICE INDEFINITELY
yes
REIL OUT OF SERVICE INDEFINITELY
Touchdown point: yes, no lightsyes, no lights
Obstructions: 69 ft. tree, 1036 ft. from runway, 172 ft. right of centerline, 12:1 slope to clear23 ft. pole, 516 ft. from runway, 174 ft. right of centerline, 14:1 slope to clear
POWER POLE IS MARKED AND LIGHTED.

Airport Ownership and Management from official FAA records

Ownership: Publicly-owned
Owner: TOWN OF CHERAW
P O BOX 111
CHERAW, SC 29520
Phone 843-537-7283
Manager: WENDELL HALL
RT 3, BOX 250
CHERAW, SC 29520
Phone 843-537-6423

Airport Operational Statistics

Aircraft based on the field: 15
Single engine airplanes: 14
Helicopters: 1
    
Aircraft operations: avg 119/week *
58% local general aviation
36% transient general aviation
3% military
2% air taxi
* for 12-month period ending 15 March 2018

Instrument Procedures

NOTE: All procedures below are presented as PDF files. If you need a reader for these files, you should download the free Adobe Reader.

NOT FOR NAVIGATION. Please procure official charts for flight.
FAA instrument procedures published for use from 28 March 2019 at 0901Z to 25 April 2019 at 0900Z.

 
IAPs - Instrument Approach Procedures
RNAV (GPS) RWY 08   download (197KB)
RNAV (GPS) RWY 26   download (233KB)
VOR/DME RWY 08   download (194KB)
NOTE: Special Alternate Minimums apply   download (42KB)
NOTE: Special Take-Off Minimums/Departure Procedures apply   download (141KB)

Other nearby airports with instrument procedures:

KBBP - Marlboro County Jetport - H E Avent Field (12 nm SE)
KRCZ - Richmond County Airport (14 nm NE)
KUDG - Darlington County Airport (16 nm S)
KPYG - Pageland Airport (19 nm W)
KAFP - Anson County Airport - Jeff Cloud Field (19 nm N)
 
Loc | Ops | Rwys | IFR | FBO | Links
Com | Nav | Svcs | Stats | Notes
Area around KCQW (Cheraw Municipal Airport/Lynch Bellinger Field)
 
Road maps at: MapQuest Bing Google
 
Aerial photo
WARNING: Photo may not be current or correct
Aerial photo of KCQW (Cheraw Municipal Airport/Lynch Bellinger Field)
Photo by Ed Morrison
Photo taken 08-Jul-2012
looking west.

Do you have a better or more recent aerial photo of Cheraw Municipal Airport/Lynch Bellinger Field that you would like to share? If so, please send us your photo.

 
Sectional chart

 
Airport distance calculator
Flying to Cheraw Municipal Airport/Lynch Bellinger Field? Find the distance to fly.

From to KCQW

Sunrise and sunset
Times for 20-Apr-2019
 Local
(UTC-4)
 Zulu
(UTC)
Morning civil twilight06:1710:17
Sunrise06:4310:43
Sunset19:5523:55
Evening civil twilight20:2100:21

Current date and time
Zulu (UTC)  20-Apr-2019 10:36:11
Local (UTC-4)  20-Apr-2019 06:36:11
 
METAR
KCQW 201015Z AUTO 20009KT 10SM BKN021 OVC029 12/09 A2967 RMK AO2
KBBP 
12nm SE 
201015Z AUTO 19005KT 10SM BKN029 11/08 A2969 RMK AO2
KRCZ 
14nm NE 
201000Z AUTO 19003KT 10SM SCT029 OVC040 11/10 A2966 RMK AO2 T01100099
KUDG 
16nm S 
200956Z AUTO 21011KT 10SM SCT027 11/08 A2968 RMK AO2 SLP057 T01110083
KAFP 
19nm N 
201000Z AUTO 17006KT 10SM CLR 10/07 A2964 RMK AO2 T01040073
TAF
KFLO 
34nm S 
200520Z 2006/2106 21012G17KT P6SM VCSH SCT015 BKN025 OVC045 FM201300 22014G22KT P6SM BKN045 BKN100 FM210000 24007KT P6SM OVC050
NOTAMs
Click for the latest NOTAMs
NOTAMs are issued by the DoD/FAA and will open in a separate window not controlled by AirNav.

 

 
 

FBO, Fuel Providers, and Aircraft Ground Support

  
 Business Name 
 
 Contact 
 
 Services / Description 
 
Fuel Prices
 
Comments
  
Hall's Aviation 843-537-6423
no information available

If you are affiliated with Hall's Aviation and would like to show here your services, contact info, web link, logo, and more, click here
100LL Jet A
FS --- $4.25 
PS $5.00 --- 
 Updated 10-Apr-2019
 
   write
FS=Full service
PS=Pump service
Update Fuel Prices
 

Would you like to see your business listed on this page?

 If your business provides an interesting product or service to pilots, flight crews, aircraft, or users of the Cheraw Municipal Airport/Lynch Bellinger Field, you should consider listing it here.  To start the listing process, click on the button below
 
Add a business
 

Other Pages about Cheraw Municipal Airport/Lynch Bellinger Field

Update a link
 
Copyright © AirNav, LLC. All rights reserved. Privacy Policy  Contact